sensor_id;sensor_type;location;lat;lon;timestamp;temperature;humidity
7325;DHT22;3703;48.016;7.802;2023-04-01T00:01:50;8.50;99.90
7325;DHT22;3703;48.016;7.802;2023-04-01T00:04:37;8.70;99.90
7325;DHT22;3703;48.016;7.802;2023-04-01T00:07:26;8.70;99.90
7325;DHT22;3703;48.016;7.802;2023-04-01T00:10:14;8.50;99.90
7325;DHT22;3703;48.016;7.802;2023-04-01T00:13:01;8.10;99.90
7325;DHT22;3703;48.016;7.802;2023-04-01T00:15:49;8.20;99.90
7325;DHT22;3703;48.016;7.802;2023-04-01T00:18:37;8.30;99.90
7325;DHT22;3703;48.016;7.802;2023-04-01T00:21:24;7.10;99.90
7325;DHT22;3703;48.016;7.802;2023-04-01T00:24:13;8.40;99.90
7325;DHT22;3703;48.016;7.802;2023-04-01T00:27:01;8.30;99.90
7325;DHT22;3703;48.016;7.802;2023-04-01T00:29:48;8.20;99.90
7325;DHT22;3703;48.016;7.802;2023-04-01T00:32:36;8.10;99.90
7325;DHT22;3703;48.016;7.802;2023-04-01T00:35:23;8.10;99.90
7325;DHT22;3703;48.016;7.802;2023-04-01T00:38:11;8.30;99.90
7325;DHT22;3703;48.016;7.802;2023-04-01T00:41:00;8.50;99.90
7325;DHT22;3703;48.016;7.802;2023-04-01T00:43:49;8.00;99.90
7325;DHT22;3703;48.016;7.802;2023-04-01T00:46:37;8.40;99.90
7325;DHT22;3703;48.016;7.802;2023-04-01T00:49:28;9.10;99.90
7325;DHT22;3703;48.016;7.802;2023-04-01T00:52:19;8.40;99.90
7325;DHT22;3703;48.016;7.802;2023-04-01T00:55:11;8.40;99.90
7325;DHT22;3703;48.016;7.802;2023-04-01T00:58:03;8.50;99.90
7325;DHT22;3703;48.016;7.802;2023-04-01T01:00:53;8.50;99.90
7325;DHT22;3703;48.016;7.802;2023-04-01T01:03:41;8.60;99.90
7325;DHT22;3703;48.016;7.802;2023-04-01T01:06:42;8.20;99.90
7325;DHT22;3703;48.016;7.802;2023-04-01T01:09:41;8.60;99.90
7325;DHT22;3703;48.016;7.802;2023-04-01T01:12:37;8.80;99.90
7325;DHT22;3703;48.016;7.802;2023-04-01T01:15:32;8.70;99.90
7325;DHT22;3703;48.016;7.802;2023-04-01T01:18:29;8.60;99.90
7325;DHT22;3703;48.016;7.802;2023-04-01T01:21:32;8.70;99.90
7325;DHT22;3703;48.016;7.802;2023-04-01T01:24:39;8.50;99.90
7325;DHT22;3703;48.016;7.802;2023-04-01T01:27:31;8.70;99.90
7325;DHT22;3703;48.016;7.802;2023-04-01T01:30:37;8.80;99.90
7325;DHT22;3703;48.016;7.802;2023-04-01T01:33:35;8.60;99.90
7325;DHT22;3703;48.016;7.802;2023-04-01T01:36:32;9.00;99.90
7325;DHT22;3703;48.016;7.802;2023-04-01T01:39:22;8.60;99.90
7325;DHT22;3703;48.016;7.802;2023-04-01T01:42:15;8.80;99.90
7325;DHT22;3703;48.016;7.802;2023-04-01T01:45:06;8.90;99.90
7325;DHT22;3703;48.016;7.802;2023-04-01T01:47:56;8.80;99.90
7325;DHT22;3703;48.016;7.802;2023-04-01T01:50:46;9.10;99.90
7325;DHT22;3703;48.016;7.802;2023-04-01T01:53:36;8.90;99.90
7325;DHT22;3703;48.016;7.802;2023-04-01T01:56:26;9.00;99.90
7325;DHT22;3703;48.016;7.802;2023-04-01T01:59:16;9.00;99.90
7325;DHT22;3703;48.016;7.802;2023-04-01T02:02:06;8.80;99.90
7325;DHT22;3703;48.016;7.802;2023-04-01T02:04:54;9.30;99.90
7325;DHT22;3703;48.016;7.802;2023-04-01T02:07:43;9.30;99.90
7325;DHT22;3703;48.016;7.802;2023-04-01T02:10:37;9.40;99.90
7325;DHT22;3703;48.016;7.802;2023-04-01T02:13:31;9.00;99.90
7325;DHT22;3703;48.016;7.802;2023-04-01T02:16:26;9.20;99.90
7325;DHT22;3703;48.016;7.802;2023-04-01T02:19:17;9.40;99.90
7325;DHT22;3703;48.016;7.802;2023-04-01T02:22:11;9.50;99.90
7325;DHT22;3703;48.016;7.802;2023-04-01T02:25:04;9.20;99.90
7325;DHT22;3703;48.016;7.802;2023-04-01T02:27:57;8.90;99.90
7325;DHT22;3703;48.016;7.802;2023-04-01T02:30:45;9.10;99.90
7325;DHT22;3703;48.016;7.802;2023-04-01T02:33:35;8.90;99.90
7325;DHT22;3703;48.016;7.802;2023-04-01T02:36:23;9.40;99.90
7325;DHT22;3703;48.016;7.802;2023-04-01T02:39:11;8.40;99.90
7325;DHT22;3703;48.016;7.802;2023-04-01T02:42:00;9.00;99.90
7325;DHT22;3703;48.016;7.802;2023-04-01T02:44:49;6.70;99.90
7325;DHT22;3703;48.016;7.802;2023-04-01T02:47:37;8.80;99.90
7325;DHT22;3703;48.016;7.802;2023-04-01T02:50:24;9.00;99.90
7325;DHT22;3703;48.016;7.802;2023-04-01T02:53:12;8.70;99.90
7325;DHT22;3703;48.016;7.802;2023-04-01T02:58:47;8.60;99.90
7325;DHT22;3703;48.016;7.802;2023-04-01T03:01:36;8.40;99.90
7325;DHT22;3703;48.016;7.802;2023-04-01T03:04:23;8.60;99.90
7325;DHT22;3703;48.016;7.802;2023-04-01T03:07:11;9.30;99.90
7325;DHT22;3703;48.016;7.802;2023-04-01T03:09:59;8.90;99.90
7325;DHT22;3703;48.016;7.802;2023-04-01T03:12:46;8.70;99.90
7325;DHT22;3703;48.016;7.802;2023-04-01T03:15:34;8.50;99.90
7325;DHT22;3703;48.016;7.802;2023-04-01T03:18:23;8.30;99.90
7325;DHT22;3703;48.016;7.802;2023-04-01T03:21:15;8.60;99.90
7325;DHT22;3703;48.016;7.802;2023-04-01T03:24:03;8.60;99.90
7325;DHT22;3703;48.016;7.802;2023-04-01T03:26:52;8.50;99.90
7325;DHT22;3703;48.016;7.802;2023-04-01T03:29:39;8.80;99.90
7325;DHT22;3703;48.016;7.802;2023-04-01T03:32:27;8.50;99.90
7325;DHT22;3703;48.016;7.802;2023-04-01T03:35:16;8.50;99.90
7325;DHT22;3703;48.016;7.802;2023-04-01T03:38:04;8.40;99.90
7325;DHT22;3703;48.016;7.802;2023-04-01T03:40:51;8.50;99.90
7325;DHT22;3703;48.016;7.802;2023-04-01T03:52:03;8.30;99.90
7325;DHT22;3703;48.016;7.802;2023-04-01T04:03:14;8.20;99.90
7325;DHT22;3703;48.016;7.802;2023-04-01T04:08:51;8.30;99.90
7325;DHT22;3703;48.016;7.802;2023-04-01T04:20:02;8.40;99.90
7325;DHT22;3703;48.016;7.802;2023-04-01T04:25:40;8.40;99.90
7325;DHT22;3703;48.016;7.802;2023-04-01T04:31:18;8.40;99.90
7325;DHT22;3703;48.016;7.802;2023-04-01T04:36:54;8.20;99.90
7325;DHT22;3703;48.016;7.802;2023-04-01T04:42:30;8.40;99.90
7325;DHT22;3703;48.016;7.802;2023-04-01T04:48:07;8.30;99.90
7325;DHT22;3703;48.016;7.802;2023-04-01T04:53:43;8.50;99.90
7325;DHT22;3703;48.016;7.802;2023-04-01T04:56:31;8.50;99.90
7325;DHT22;3703;48.016;7.802;2023-04-01T04:59:20;8.60;99.90
7325;DHT22;3703;48.016;7.802;2023-04-01T05:16:10;8.70;99.90
7325;DHT22;3703;48.016;7.802;2023-04-01T05:30:10;8.70;99.90
7325;DHT22;3703;48.016;7.802;2023-04-01T05:32:59;8.50;99.90
7325;DHT22;3703;48.016;7.802;2023-04-01T05:35:47;8.80;99.90
7325;DHT22;3703;48.016;7.802;2023-04-01T05:44:12;8.80;99.90
7325;DHT22;3703;48.016;7.802;2023-04-01T05:46:59;9.20;99.90
7325;DHT22;3703;48.016;7.802;2023-04-01T05:49:48;8.80;99.90
7325;DHT22;3703;48.016;7.802;2023-04-01T05:55:23;9.00;99.90
7325;DHT22;3703;48.016;7.802;2023-04-01T06:01:02;8.90;99.90
7325;DHT22;3703;48.016;7.802;2023-04-01T06:06:40;9.00;99.90
7325;DHT22;3703;48.016;7.802;2023-04-01T06:09:29;8.90;99.90
7325;DHT22;3703;48.016;7.802;2023-04-01T06:12:36;7.60;99.90
7325;DHT22;3703;48.016;7.802;2023-04-01T06:15:36;8.90;99.90
7325;DHT22;3703;48.016;7.802;2023-04-01T06:22:06;9.30;99.90
7325;DHT22;3703;48.016;7.802;2023-04-01T06:28:44;9.10;99.90
7325;DHT22;3703;48.016;7.802;2023-04-01T06:31:47;9.10;99.90
7325;DHT22;3703;48.016;7.802;2023-04-01T06:35:00;9.30;99.90
7325;DHT22;3703;48.016;7.802;2023-04-01T06:38:34;9.30;99.90
7325;DHT22;3703;48.016;7.802;2023-04-01T06:44:53;9.50;99.90
7325;DHT22;3703;48.016;7.802;2023-04-01T06:47:56;9.30;99.90
7325;DHT22;3703;48.016;7.802;2023-04-01T06:50:58;9.20;99.90
7325;DHT22;3703;48.016;7.802;2023-04-01T06:53:56;9.30;99.90
7325;DHT22;3703;48.016;7.802;2023-04-01T06:56:50;9.30;99.90
7325;DHT22;3703;48.016;7.802;2023-04-01T06:59:43;9.80;99.90
7325;DHT22;3703;48.016;7.802;2023-04-01T07:02:36;9.40;99.90
7325;DHT22;3703;48.016;7.802;2023-04-01T07:05:35;9.40;99.90
7325;DHT22;3703;48.016;7.802;2023-04-01T07:08:25;9.30;99.90
7325;DHT22;3703;48.016;7.802;2023-04-01T07:11:23;9.20;99.90
7325;DHT22;3703;48.016;7.802;2023-04-01T07:14:18;9.30;99.90
7325;DHT22;3703;48.016;7.802;2023-04-01T07:17:11;9.40;99.90
7325;DHT22;3703;48.016;7.802;2023-04-01T07:20:05;9.20;99.90
7325;DHT22;3703;48.016;7.802;2023-04-01T07:23:00;9.60;99.90
7325;DHT22;3703;48.016;7.802;2023-04-01T07:25:52;9.30;99.90
7325;DHT22;3703;48.016;7.802;2023-04-01T07:28:44;9.50;99.90
7325;DHT22;3703;48.016;7.802;2023-04-01T07:31:52;9.30;99.90
7325;DHT22;3703;48.016;7.802;2023-04-01T07:34:59;9.90;99.90
7325;DHT22;3703;48.016;7.802;2023-04-01T07:38:11;9.30;99.90
7325;DHT22;3703;48.016;7.802;2023-04-01T07:41:08;9.50;99.90
7325;DHT22;3703;48.016;7.802;2023-04-01T07:44:08;9.40;99.90
7325;DHT22;3703;48.016;7.802;2023-04-01T07:47:09;9.30;99.90
7325;DHT22;3703;48.016;7.802;2023-04-01T07:50:11;9.90;99.90
7325;DHT22;3703;48.016;7.802;2023-04-01T07:53:10;9.60;99.90
7325;DHT22;3703;48.016;7.802;2023-04-01T07:56:06;9.90;99.90
7325;DHT22;3703;48.016;7.802;2023-04-01T07:59:01;9.80;99.90
7325;DHT22;3703;48.016;7.802;2023-04-01T08:02:03;10.00;99.90
7325;DHT22;3703;48.016;7.802;2023-04-01T08:05:06;9.70;99.90
7325;DHT22;3703;48.016;7.802;2023-04-01T08:08:07;9.80;99.90
7325;DHT22;3703;48.016;7.802;2023-04-01T08:11:03;9.90;99.90
7325;DHT22;3703;48.016;7.802;2023-04-01T08:14:05;9.70;99.90
7325;DHT22;3703;48.016;7.802;2023-04-01T08:17:02;9.40;99.90
7325;DHT22;3703;48.016;7.802;2023-04-01T08:20:01;10.20;99.90
7325;DHT22;3703;48.016;7.802;2023-04-01T08:23:00;9.50;99.90
7325;DHT22;3703;48.016;7.802;2023-04-01T08:25:58;9.40;99.90
7325;DHT22;3703;48.016;7.802;2023-04-01T08:28:52;9.60;99.90
7325;DHT22;3703;48.016;7.802;2023-04-01T08:31:49;9.60;99.90
7325;DHT22;3703;48.016;7.802;2023-04-01T08:34:43;9.60;99.90
7325;DHT22;3703;48.016;7.802;2023-04-01T08:37:37;9.80;99.90
7325;DHT22;3703;48.016;7.802;2023-04-01T08:40:58;9.60;99.90
7325;DHT22;3703;48.016;7.802;2023-04-01T08:44:10;9.50;99.90
7325;DHT22;3703;48.016;7.802;2023-04-01T08:47:34;9.70;99.90
7325;DHT22;3703;48.016;7.802;2023-04-01T08:50:53;10.00;99.90
7325;DHT22;3703;48.016;7.802;2023-04-01T08:54:10;10.20;99.90
7325;DHT22;3703;48.016;7.802;2023-04-01T08:57:08;10.10;99.90
7325;DHT22;3703;48.016;7.802;2023-04-01T09:00:13;9.90;99.90
7325;DHT22;3703;48.016;7.802;2023-04-01T09:03:38;10.40;99.90
7325;DHT22;3703;48.016;7.802;2023-04-01T09:06:52;10.00;99.90
7325;DHT22;3703;48.016;7.802;2023-04-01T09:10:03;9.90;99.90
7325;DHT22;3703;48.016;7.802;2023-04-01T09:13:29;10.50;99.90
7325;DHT22;3703;48.016;7.802;2023-04-01T09:16:31;10.10;99.90
7325;DHT22;3703;48.016;7.802;2023-04-01T09:19:53;10.00;99.90
7325;DHT22;3703;48.016;7.802;2023-04-01T09:23:02;10.20;99.90
7325;DHT22;3703;48.016;7.802;2023-04-01T09:26:08;10.20;99.90
7325;DHT22;3703;48.016;7.802;2023-04-01T09:29:18;10.20;99.90
7325;DHT22;3703;48.016;7.802;2023-04-01T09:32:32;10.30;99.90
7325;DHT22;3703;48.016;7.802;2023-04-01T09:35:38;10.10;99.90
7325;DHT22;3703;48.016;7.802;2023-04-01T09:38:30;10.20;99.90
7325;DHT22;3703;48.016;7.802;2023-04-01T09:41:29;10.40;99.90
7325;DHT22;3703;48.016;7.802;2023-04-01T09:44:23;12.10;99.90
7325;DHT22;3703;48.016;7.802;2023-04-01T09:47:39;10.20;99.90
7325;DHT22;3703;48.016;7.802;2023-04-01T09:50:37;10.60;99.90
7325;DHT22;3703;48.016;7.802;2023-04-01T09:53:41;10.20;99.90
7325;DHT22;3703;48.016;7.802;2023-04-01T09:57:07;10.40;99.90
7325;DHT22;3703;48.016;7.802;2023-04-01T10:00:25;10.60;99.90
7325;DHT22;3703;48.016;7.802;2023-04-01T10:11:21;10.20;99.90
7325;DHT22;3703;48.016;7.802;2023-04-01T10:18:12;10.60;99.90
7325;DHT22;3703;48.016;7.802;2023-04-01T10:21:47;10.80;99.90
7325;DHT22;3703;48.016;7.802;2023-04-01T10:25:18;10.50;99.90
7325;DHT22;3703;48.016;7.802;2023-04-01T10:32:32;10.50;99.90
7325;DHT22;3703;48.016;7.802;2023-04-01T10:39:42;10.50;99.90
7325;DHT22;3703;48.016;7.802;2023-04-01T10:43:23;10.60;99.90
7325;DHT22;3703;48.016;7.802;2023-04-01T10:50:33;10.50;99.90
7325;DHT22;3703;48.016;7.802;2023-04-01T10:53:37;10.50;99.90
7325;DHT22;3703;48.016;7.802;2023-04-01T10:56:36;10.70;99.90
7325;DHT22;3703;48.016;7.802;2023-04-01T11:11:17;10.40;99.90
7325;DHT22;3703;48.016;7.802;2023-04-01T11:18:18;10.60;99.90
7325;DHT22;3703;48.016;7.802;2023-04-01T11:25:02;10.50;99.90
7325;DHT22;3703;48.016;7.802;2023-04-01T11:28:13;10.10;99.90
7325;DHT22;3703;48.016;7.802;2023-04-01T11:31:46;10.40;99.90
7325;DHT22;3703;48.016;7.802;2023-04-01T11:34:53;10.30;99.90
7325;DHT22;3703;48.016;7.802;2023-04-01T11:37:50;10.30;99.90
7325;DHT22;3703;48.016;7.802;2023-04-01T11:40:48;10.50;99.90
7325;DHT22;3703;48.016;7.802;2023-04-01T11:43:47;10.40;99.90
7325;DHT22;3703;48.016;7.802;2023-04-01T11:46:49;10.20;99.90
7325;DHT22;3703;48.016;7.802;2023-04-01T11:49:57;10.40;99.90
7325;DHT22;3703;48.016;7.802;2023-04-01T11:53:14;10.40;99.90
7325;DHT22;3703;48.016;7.802;2023-04-01T11:56:23;10.10;99.90
7325;DHT22;3703;48.016;7.802;2023-04-01T11:59:44;10.50;99.90
7325;DHT22;3703;48.016;7.802;2023-04-01T12:02:44;10.50;99.90
7325;DHT22;3703;48.016;7.802;2023-04-01T12:05:42;10.40;99.90
7325;DHT22;3703;48.016;7.802;2023-04-01T12:08:39;10.60;99.90
7325;DHT22;3703;48.016;7.802;2023-04-01T12:11:38;10.40;99.90
7325;DHT22;3703;48.016;7.802;2023-04-01T12:14:35;10.50;99.90
7325;DHT22;3703;48.016;7.802;2023-04-01T12:17:36;10.60;99.90
7325;DHT22;3703;48.016;7.802;2023-04-01T12:20:43;10.70;99.90
7325;DHT22;3703;48.016;7.802;2023-04-01T12:23:48;10.50;99.90
7325;DHT22;3703;48.016;7.802;2023-04-01T12:26:59;10.60;99.90
7325;DHT22;3703;48.016;7.802;2023-04-01T12:37:10;10.90;99.90
7325;DHT22;3703;48.016;7.802;2023-04-01T12:40:23;10.80;99.90
7325;DHT22;3703;48.016;7.802;2023-04-01T12:43:34;11.00;99.90
7325;DHT22;3703;48.016;7.802;2023-04-01T12:46:52;10.90;99.90
7325;DHT22;3703;48.016;7.802;2023-04-01T12:50:19;10.90;99.90
7325;DHT22;3703;48.016;7.802;2023-04-01T12:53:35;10.90;99.90
7325;DHT22;3703;48.016;7.802;2023-04-01T12:56:36;10.90;99.90
7325;DHT22;3703;48.016;7.802;2023-04-01T12:59:45;10.90;99.90
7325;DHT22;3703;48.016;7.802;2023-04-01T13:02:51;10.90;99.90
7325;DHT22;3703;48.016;7.802;2023-04-01T13:06:07;11.00;99.90
7325;DHT22;3703;48.016;7.802;2023-04-01T13:09:13;11.00;99.90
7325;DHT22;3703;48.016;7.802;2023-04-01T13:12:36;11.10;99.90
7325;DHT22;3703;48.016;7.802;2023-04-01T13:15:36;11.00;99.90
7325;DHT22;3703;48.016;7.802;2023-04-01T13:18:31;11.00;99.90
7325;DHT22;3703;48.016;7.802;2023-04-01T13:21:33;11.00;99.90
7325;DHT22;3703;48.016;7.802;2023-04-01T13:24:37;11.10;99.90
7325;DHT22;3703;48.016;7.802;2023-04-01T13:27:33;11.20;99.90
7325;DHT22;3703;48.016;7.802;2023-04-01T13:30:26;11.30;99.90
7325;DHT22;3703;48.016;7.802;2023-04-01T13:33:20;11.20;99.90
7325;DHT22;3703;48.016;7.802;2023-04-01T13:36:22;11.20;99.90
7325;DHT22;3703;48.016;7.802;2023-04-01T13:39:23;11.20;99.90
7325;DHT22;3703;48.016;7.802;2023-04-01T13:42:22;11.50;99.90
7325;DHT22;3703;48.016;7.802;2023-04-01T13:45:15;11.40;99.90
7325;DHT22;3703;48.016;7.802;2023-04-01T13:55:55;11.80;99.90
7325;DHT22;3703;48.016;7.802;2023-04-01T13:59:03;11.90;99.90
7325;DHT22;3703;48.016;7.802;2023-04-01T14:02:10;11.80;99.90
7325;DHT22;3703;48.016;7.802;2023-04-01T14:05:20;12.00;99.90
7325;DHT22;3703;48.016;7.802;2023-04-01T14:08:26;12.00;99.90
7325;DHT22;3703;48.016;7.802;2023-04-01T14:11:20;12.00;99.90
7325;DHT22;3703;48.016;7.802;2023-04-01T14:14:19;12.20;99.90
7325;DHT22;3703;48.016;7.802;2023-04-01T14:17:18;12.30;99.90
7325;DHT22;3703;48.016;7.802;2023-04-01T14:20:29;11.40;99.90
7325;DHT22;3703;48.016;7.802;2023-04-01T14:33:42;12.20;99.90
7325;DHT22;3703;48.016;7.802;2023-04-01T14:36:44;11.80;99.90
7325;DHT22;3703;48.016;7.802;2023-04-01T14:39:52;11.50;99.90
7325;DHT22;3703;48.016;7.802;2023-04-01T14:50:11;11.60;99.90
7325;DHT22;3703;48.016;7.802;2023-04-01T14:53:12;11.70;99.90
7325;DHT22;3703;48.016;7.802;2023-04-01T14:56:10;11.70;99.90
7325;DHT22;3703;48.016;7.802;2023-04-01T14:58:57;12.00;99.90
7325;DHT22;3703;48.016;7.802;2023-04-01T15:01:54;12.00;99.90
7325;DHT22;3703;48.016;7.802;2023-04-01T15:04:52;12.10;99.90
7325;DHT22;3703;48.016;7.802;2023-04-01T15:08:00;11.80;99.90
7325;DHT22;3703;48.016;7.802;2023-04-01T15:14:31;11.80;99.90
7325;DHT22;3703;48.016;7.802;2023-04-01T15:17:40;11.60;99.90
7325;DHT22;3703;48.016;7.802;2023-04-01T15:21:07;11.50;99.90
7325;DHT22;3703;48.016;7.802;2023-04-01T15:24:07;11.50;99.90
7325;DHT22;3703;48.016;7.802;2023-04-01T15:27:17;11.50;99.90
7325;DHT22;3703;48.016;7.802;2023-04-01T15:30:22;11.50;99.90
7325;DHT22;3703;48.016;7.802;2023-04-01T15:33:36;11.60;99.90
7325;DHT22;3703;48.016;7.802;2023-04-01T15:36:35;11.50;99.90
7325;DHT22;3703;48.016;7.802;2023-04-01T15:39:38;11.50;99.90
7325;DHT22;3703;48.016;7.802;2023-04-01T15:42:46;11.60;99.90
7325;DHT22;3703;48.016;7.802;2023-04-01T15:45:51;11.50;99.90
7325;DHT22;3703;48.016;7.802;2023-04-01T15:48:55;11.40;99.90
7325;DHT22;3703;48.016;7.802;2023-04-01T15:52:13;11.30;99.90
7325;DHT22;3703;48.016;7.802;2023-04-01T15:55:17;11.20;99.90
7325;DHT22;3703;48.016;7.802;2023-04-01T15:58:27;11.20;99.90
7325;DHT22;3703;48.016;7.802;2023-04-01T16:01:31;11.10;99.90
7325;DHT22;3703;48.016;7.802;2023-04-01T16:04:35;11.00;99.90
7325;DHT22;3703;48.016;7.802;2023-04-01T16:07:43;11.30;99.90
7325;DHT22;3703;48.016;7.802;2023-04-01T16:10:48;11.40;99.90
7325;DHT22;3703;48.016;7.802;2023-04-01T16:13:48;11.40;99.90
7325;DHT22;3703;48.016;7.802;2023-04-01T16:16:53;11.40;99.90
7325;DHT22;3703;48.016;7.802;2023-04-01T16:19:51;11.50;99.90
7325;DHT22;3703;48.016;7.802;2023-04-01T16:22:45;11.60;99.90
7325;DHT22;3703;48.016;7.802;2023-04-01T16:25:39;11.70;99.90
7325;DHT22;3703;48.016;7.802;2023-04-01T16:28:30;11.70;99.90
7325;DHT22;3703;48.016;7.802;2023-04-01T16:31:31;11.70;99.90
7325;DHT22;3703;48.016;7.802;2023-04-01T16:34:27;11.80;99.90
7325;DHT22;3703;48.016;7.802;2023-04-01T16:37:21;11.80;99.90
7325;DHT22;3703;48.016;7.802;2023-04-01T16:40:24;11.90;99.90
7325;DHT22;3703;48.016;7.802;2023-04-01T16:43:21;11.80;99.90
7325;DHT22;3703;48.016;7.802;2023-04-01T16:46:18;11.80;99.90
7325;DHT22;3703;48.016;7.802;2023-04-01T16:49:24;11.70;99.90
7325;DHT22;3703;48.016;7.802;2023-04-01T16:52:16;11.60;99.90
7325;DHT22;3703;48.016;7.802;2023-04-01T16:55:18;11.80;99.90
7325;DHT22;3703;48.016;7.802;2023-04-01T16:58:06;11.90;99.90
7325;DHT22;3703;48.016;7.802;2023-04-01T17:01:00;11.90;99.90
7325;DHT22;3703;48.016;7.802;2023-04-01T17:03:57;11.80;99.90
7325;DHT22;3703;48.016;7.802;2023-04-01T17:06:52;11.80;99.90
7325;DHT22;3703;48.016;7.802;2023-04-01T17:09:56;11.80;99.90
7325;DHT22;3703;48.016;7.802;2023-04-01T17:16:41;11.70;99.90
7325;DHT22;3703;48.016;7.802;2023-04-01T17:19:49;11.70;99.90
7325;DHT22;3703;48.016;7.802;2023-04-01T17:22:54;11.70;99.90
7325;DHT22;3703;48.016;7.802;2023-04-01T17:26:10;11.70;99.90
7325;DHT22;3703;48.016;7.802;2023-04-01T17:29:22;10.80;99.90
7325;DHT22;3703;48.016;7.802;2023-04-01T17:32:19;11.50;99.90
7325;DHT22;3703;48.016;7.802;2023-04-01T17:35:17;11.60;99.90
7325;DHT22;3703;48.016;7.802;2023-04-01T17:38:13;11.50;99.90
7325;DHT22;3703;48.016;7.802;2023-04-01T17:41:11;11.50;99.90
7325;DHT22;3703;48.016;7.802;2023-04-01T17:44:15;11.50;99.90
7325;DHT22;3703;48.016;7.802;2023-04-01T17:47:29;11.40;99.90
7325;DHT22;3703;48.016;7.802;2023-04-01T17:50:27;11.30;99.90
7325;DHT22;3703;48.016;7.802;2023-04-01T17:53:26;11.30;99.90
7325;DHT22;3703;48.016;7.802;2023-04-01T17:56:33;11.20;99.90
7325;DHT22;3703;48.016;7.802;2023-04-01T17:59:33;11.10;99.90
7325;DHT22;3703;48.016;7.802;2023-04-01T18:02:27;11.10;99.90
7325;DHT22;3703;48.016;7.802;2023-04-01T18:05:27;10.90;99.90
7325;DHT22;3703;48.016;7.802;2023-04-01T18:08:31;10.80;99.90
7325;DHT22;3703;48.016;7.802;2023-04-01T18:11:34;10.90;99.90
7325;DHT22;3703;48.016;7.802;2023-04-01T18:14:43;10.70;99.90
7325;DHT22;3703;48.016;7.802;2023-04-01T18:17:54;10.70;99.90
7325;DHT22;3703;48.016;7.802;2023-04-01T18:20:54;10.70;99.90
7325;DHT22;3703;48.016;7.802;2023-04-01T18:23:51;10.60;99.90
7325;DHT22;3703;48.016;7.802;2023-04-01T18:26:47;10.50;99.90
7325;DHT22;3703;48.016;7.802;2023-04-01T18:29:42;10.50;99.90
7325;DHT22;3703;48.016;7.802;2023-04-01T18:32:35;10.40;99.90
7325;DHT22;3703;48.016;7.802;2023-04-01T18:35:32;10.40;99.90
7325;DHT22;3703;48.016;7.802;2023-04-01T18:38:31;10.30;99.90
7325;DHT22;3703;48.016;7.802;2023-04-01T18:41:27;10.40;99.90
7325;DHT22;3703;48.016;7.802;2023-04-01T18:44:31;8.90;99.90
7325;DHT22;3703;48.016;7.802;2023-04-01T18:47:30;10.40;99.90
7325;DHT22;3703;48.016;7.802;2023-04-01T18:50:26;10.40;99.90
7325;DHT22;3703;48.016;7.802;2023-04-01T18:53:22;9.90;99.90
7325;DHT22;3703;48.016;7.802;2023-04-01T18:56:23;10.40;99.90
7325;DHT22;3703;48.016;7.802;2023-04-01T18:59:18;10.40;99.90
7325;DHT22;3703;48.016;7.802;2023-04-01T19:02:21;10.30;99.90
7325;DHT22;3703;48.016;7.802;2023-04-01T19:05:17;10.20;99.90
7325;DHT22;3703;48.016;7.802;2023-04-01T19:08:19;10.20;99.90
7325;DHT22;3703;48.016;7.802;2023-04-01T19:11:21;10.20;99.90
7325;DHT22;3703;48.016;7.802;2023-04-01T19:14:19;10.20;99.90
7325;DHT22;3703;48.016;7.802;2023-04-01T19:17:25;10.10;99.90
7325;DHT22;3703;48.016;7.802;2023-04-01T19:20:27;10.20;99.90
7325;DHT22;3703;48.016;7.802;2023-04-01T19:27:10;10.20;99.90
7325;DHT22;3703;48.016;7.802;2023-04-01T19:30:17;10.10;99.90
7325;DHT22;3703;48.016;7.802;2023-04-01T19:33:22;10.10;99.90
7325;DHT22;3703;48.016;7.802;2023-04-01T19:36:22;10.00;99.90
7325;DHT22;3703;48.016;7.802;2023-04-01T19:39:27;10.00;99.90
7325;DHT22;3703;48.016;7.802;2023-04-01T19:42:27;9.90;99.90
7325;DHT22;3703;48.016;7.802;2023-04-01T19:45:30;10.00;99.90
7325;DHT22;3703;48.016;7.802;2023-04-01T19:48:37;10.00;99.90
7325;DHT22;3703;48.016;7.802;2023-04-01T19:51:35;9.70;99.90
7325;DHT22;3703;48.016;7.802;2023-04-01T19:54:31;9.90;99.90
7325;DHT22;3703;48.016;7.802;2023-04-01T19:57:28;10.20;99.90
7325;DHT22;3703;48.016;7.802;2023-04-01T20:00:25;9.90;99.90
7325;DHT22;3703;48.016;7.802;2023-04-01T20:03:26;10.10;99.90
7325;DHT22;3703;48.016;7.802;2023-04-01T20:06:27;10.00;99.90
7325;DHT22;3703;48.016;7.802;2023-04-01T20:09:41;9.70;99.90
7325;DHT22;3703;48.016;7.802;2023-04-01T20:12:42;9.70;99.90
7325;DHT22;3703;48.016;7.802;2023-04-01T20:15:35;10.30;99.90
7325;DHT22;3703;48.016;7.802;2023-04-01T20:18:32;10.00;99.90
7325;DHT22;3703;48.016;7.802;2023-04-01T20:21:33;9.80;99.90
7325;DHT22;3703;48.016;7.802;2023-04-01T20:24:26;9.90;99.90
7325;DHT22;3703;48.016;7.802;2023-04-01T20:27:20;9.50;99.90
7325;DHT22;3703;48.016;7.802;2023-04-01T20:30:28;9.50;99.90
7325;DHT22;3703;48.016;7.802;2023-04-01T20:37:23;9.80;99.90
7325;DHT22;3703;48.016;7.802;2023-04-01T20:40:31;9.90;99.90
7325;DHT22;3703;48.016;7.802;2023-04-01T20:43:35;9.90;99.90
7325;DHT22;3703;48.016;7.802;2023-04-01T20:46:36;9.90;99.90
7325;DHT22;3703;48.016;7.802;2023-04-01T20:49:41;10.00;99.90
7325;DHT22;3703;48.016;7.802;2023-04-01T20:52:41;10.00;99.90
7325;DHT22;3703;48.016;7.802;2023-04-01T20:55:57;8.70;99.90
7325;DHT22;3703;48.016;7.802;2023-04-01T20:58:54;10.10;99.90
7325;DHT22;3703;48.016;7.802;2023-04-01T21:01:53;10.10;99.90
7325;DHT22;3703;48.016;7.802;2023-04-01T21:05:11;10.20;99.90
7325;DHT22;3703;48.016;7.802;2023-04-01T21:08:17;10.20;99.90
7325;DHT22;3703;48.016;7.802;2023-04-01T21:11:19;10.20;99.90
7325;DHT22;3703;48.016;7.802;2023-04-01T21:14:33;10.20;99.90
7325;DHT22;3703;48.016;7.802;2023-04-01T21:17:38;10.20;99.90
7325;DHT22;3703;48.016;7.802;2023-04-01T21:20:45;10.20;99.90
7325;DHT22;3703;48.016;7.802;2023-04-01T21:23:52;10.20;99.90
7325;DHT22;3703;48.016;7.802;2023-04-01T21:26:52;10.30;99.90
7325;DHT22;3703;48.016;7.802;2023-04-01T21:29:53;10.30;99.90
7325;DHT22;3703;48.016;7.802;2023-04-01T21:33:06;10.60;99.90
7325;DHT22;3703;48.016;7.802;2023-04-01T21:36:07;10.70;99.90
7325;DHT22;3703;48.016;7.802;2023-04-01T21:39:12;10.80;99.90
7325;DHT22;3703;48.016;7.802;2023-04-01T21:42:19;10.80;99.90
7325;DHT22;3703;48.016;7.802;2023-04-01T21:45:28;10.20;99.90
7325;DHT22;3703;48.016;7.802;2023-04-01T21:49:07;10.10;99.90
7325;DHT22;3703;48.016;7.802;2023-04-01T21:52:29;9.90;99.90
7325;DHT22;3703;48.016;7.802;2023-04-01T22:06:32;10.30;99.90
7325;DHT22;3703;48.016;7.802;2023-04-01T22:09:27;10.10;99.90
7325;DHT22;3703;48.016;7.802;2023-04-01T22:12:22;9.80;99.90
7325;DHT22;3703;48.016;7.802;2023-04-01T22:15:20;9.70;99.90
7325;DHT22;3703;48.016;7.802;2023-04-01T22:18:20;9.80;99.90
7325;DHT22;3703;48.016;7.802;2023-04-01T22:21:13;9.80;99.90
7325;DHT22;3703;48.016;7.802;2023-04-01T22:24:15;9.80;99.90
7325;DHT22;3703;48.016;7.802;2023-04-01T22:27:14;9.50;99.90
7325;DHT22;3703;48.016;7.802;2023-04-01T22:30:13;9.40;99.90
7325;DHT22;3703;48.016;7.802;2023-04-01T22:33:08;9.30;99.90
7325;DHT22;3703;48.016;7.802;2023-04-01T22:36:06;9.40;99.90
7325;DHT22;3703;48.016;7.802;2023-04-01T22:39:11;9.40;99.90
7325;DHT22;3703;48.016;7.802;2023-04-01T22:42:18;9.40;99.90
7325;DHT22;3703;48.016;7.802;2023-04-01T22:45:39;9.60;99.90
7325;DHT22;3703;48.016;7.802;2023-04-01T22:48:35;9.00;99.90
7325;DHT22;3703;48.016;7.802;2023-04-01T22:51:38;9.40;99.90
7325;DHT22;3703;48.016;7.802;2023-04-01T22:54:33;9.30;99.90
7325;DHT22;3703;48.016;7.802;2023-04-01T22:57:38;9.40;99.90
7325;DHT22;3703;48.016;7.802;2023-04-01T23:00:32;9.60;99.90
7325;DHT22;3703;48.016;7.802;2023-04-01T23:03:24;9.50;99.90